Pilot Vessel Akarana — ZMT2938 — position and weather

sailwx.info

Track history (hours):
 
Tides and Currents Weather Stations Pressure Air Temp Water Temp Dewpoint Dewpoint Depression Visibility Wind Speed Wind Dir Waves Ship Positions

Pilot Vessel Akarana

Last reported at 2015-Sep-05 12:34 UTC. Time now 2015-Sep-05 14:18 UTC.
Position S 36°46' E 174°49'.

Length 15 m; draft 1.6 m.

Type: Pilot. MMSI: 512000344.

Date/timePositionNaut miles runAvg speedWind from/ knotsBaromVisibWave heightAir tempDewpointWater temp
2015-Sep-05 12:34S 36°46' E 174°49'0 0.4
2015-Sep-05 11:34S 36°46' E 174°50'1 1.4
2015-Sep-05 10:33S 36°47' E 174°49'0 0.4
2015-Sep-05 09:33S 36°47' E 174°49'4 3.7
2015-Sep-05 08:33S 36°51' E 174°47'5 1.0
2015-Sep-05 03:34S 36°46' E 174°49'5 1.4
2015-Sep-05 00:13S 36°51' E 174°47'3 4.7
2015-Sep-04 23:31S 36°48' E 174°50'3 1.0
2015-Sep-04 20:30S 36°50' E 174°47'0 0.2
2015-Sep-04 18:22S 36°51' E 174°47'3 2.6
2015-Sep-04 17:13S 36°48' E 174°48'2 1.0
2015-Sep-04 15:18S 36°46' E 174°49'5 2.4
2015-Sep-04 13:14S 36°51' E 174°47'0 0.0
2015-Sep-04 12:33S 36°51' E 174°47'0 0.0
2015-Sep-04 11:33S 36°51' E 174°47'0 0.0
2015-Sep-04 09:32S 36°51' E 174°47'0 0.0
2015-Sep-04 08:17S 36°51' E 174°47'6 8.3
2015-Sep-04 07:33S 36°45' E 174°50'6 1.9
2015-Sep-04 04:26S 36°51' E 174°47'0 0.0
2015-Sep-04 03:33S 36°51' E 174°47'0 0.0
2015-Sep-04 02:32S 36°51' E 174°47'7 7.0
2015-Sep-04 01:34S 36°44' E 174°50'7 6.8
2015-Sep-04 00:33S 36°51' E 174°47'1 0.6
2015-Sep-03 23:29S 36°50' E 174°47'4 4.6
2015-Sep-03 22:34S 36°46' E 174°49'1 1.3
2015-Sep-03 21:34S 36°45' E 174°50'6 6.0
2015-Sep-03 20:33S 36°51' E 174°47'0 0.0
2015-Sep-03 19:33S 36°51' E 174°47'0 0.0
2015-Sep-03 18:33S 36°51' E 174°47'5 5.5
2015-Sep-03 17:33S 36°46' E 174°50'5 5.5
2015-Sep-03 16:33S 36°51' E 174°47'5 4.7
2015-Sep-03 15:34S 36°46' E 174°49'5 4.7
2015-Sep-03 14:33S 36°51' E 174°47'0 0.0
2015-Sep-03 13:34S 36°51' E 174°47'0 0.0
2015-Sep-03 12:33S 36°51' E 174°47'0 0.0
2015-Sep-03 11:33S 36°51' E 174°47'3 3.2
2015-Sep-03 10:33S 36°48' E 174°49'3 3.1
2015-Sep-03 09:33S 36°51' E 174°47'3 3.0
2015-Sep-03 08:33S 36°48' E 174°49'3 3.0
2015-Sep-03 07:33S 36°51' E 174°47'0 0.0
2015-Sep-03 02:28S 36°51' E 174°47'1 1.3
2015-Sep-03 01:33S 36°51' E 174°48'1 1.3
2015-Sep-03 00:32S 36°50' E 174°47'0 0.1
2015-Sep-02 20:18S 36°51' E 174°47'0 0.0
2015-Sep-02 19:34S 36°51' E 174°47'0 0.0
2015-Sep-02 18:33S 36°51' E 174°47'0 0.0
2015-Sep-02 17:29S 36°51' E 174°47'0 0.0
2015-Sep-02 16:32S 36°51' E 174°47'3 3.5
2015-Sep-02 15:34S 36°48' E 174°49'3 3.4
2015-Sep-02 14:33S 36°51' E 174°47'0 0.0
2015-Sep-02 13:33S 36°51' E 174°47'0 0.0
2015-Sep-02 12:33S 36°51' E 174°47'0 0.0
2015-Sep-02 11:34S 36°51' E 174°47'0 0.0
2015-Sep-02 10:32S 36°51' E 174°47'0 0.0
2015-Sep-02 09:33S 36°51' E 174°47'0 0.0
2015-Sep-02 08:33S 36°51' E 174°47'0 0.0
2015-Sep-02 07:33S 36°51' E 174°47'0 0.0
2015-Sep-02 06:33S 36°51' E 174°47'0 0.0
2015-Sep-02 05:33S 36°51' E 174°47'0 0.0
2015-Sep-02 04:18S 36°51' E 174°47'0 0.4
2015-Sep-02 03:22S 36°50' E 174°47'0 0.4
2015-Sep-02 02:33S 36°51' E 174°47'5 5.4
2015-Sep-02 01:34S 36°46' E 174°50'5 5.2
2015-Sep-02 00:31S 36°51' E 174°47'0 0.0
2015-Sep-01 23:33S 36°51' E 174°47'0 0.0
2015-Sep-01 22:33S 36°51' E 174°47'0 0.0
2015-Sep-01 21:33S 36°51' E 174°47'0 0.0
2015-Sep-01 20:33S 36°51' E 174°47'0 0.0
2015-Sep-01 19:34S 36°51' E 174°47'0 0.0
2015-Sep-01 18:34S 36°51' E 174°47'2 1.9
2015-Sep-01 17:34S 36°50' E 174°49'2 1.8
2015-Sep-01 16:33S 36°50' E 174°47'0 0.1
2015-Sep-01 14:18S 36°51' E 174°47'0 0.0
2015-Sep-01 13:20S 36°51' E 174°47'0 0.0
2015-Sep-01 12:33S 36°51' E 174°47'0 0.0
2015-Sep-01 11:33S 36°51' E 174°47'0 0.2
2015-Sep-01 10:34S 36°50' E 174°47'0 0.0
2015-Sep-01 04:13S 36°51' E 174°47'0 0.5
2015-Sep-01 03:32S 36°50' E 174°47'0 0.4
2015-Sep-01 02:33S 36°51' E 174°47'0 0.0
2015-Sep-01 01:33S 36°51' E 174°47'0 0.0
2015-Sep-01 00:33S 36°51' E 174°47'0 0.0
2015-Aug-31 23:33S 36°51' E 174°47'0 0.0
2015-Aug-31 22:33S 36°51' E 174°47'0 0.0
2015-Aug-31 21:33S 36°51' E 174°47'0 0.0
2015-Aug-31 20:20S 36°51' E 174°47'0 0.0
2015-Aug-31 19:33S 36°51' E 174°47'0 0.0
2015-Aug-31 18:34S 36°51' E 174°47'0 0.0
2015-Aug-31 17:29S 36°51' E 174°47'0 0.0
2015-Aug-31 16:32S 36°51' E 174°47'0 0.1
2015-Aug-31 15:34S 36°51' E 174°47'3 0.8
2015-Aug-31 11:34S 36°48' E 174°49'2 1.6
2015-Aug-31 10:33S 36°50' E 174°49'2 1.9
2015-Aug-31 09:34S 36°51' E 174°47'0 0.0
2015-Aug-31 08:33S 36°51' E 174°47'2 1.9
2015-Aug-31 07:33S 36°50' E 174°49'3 3.3
2015-Aug-31 06:34S 36°46' E 174°49'4 4.5
2015-Aug-31 05:33S 36°51' E 174°47'0 0.0
2015-Aug-31 04:33S 36°51' E 174°47'0 0.0
2015-Aug-31 03:32S 36°51' E 174°47'0 0.0
2015-Aug-31 02:33S 36°51' E 174°47'0 0.0
2015-Aug-31 01:33S 36°51' E 174°47'0 0.0
2015-Aug-31 00:33S 36°51' E 174°47'0 0.0
2015-Aug-30 23:30S 36°51' E 174°47'0 0.0
2015-Aug-30 22:33S 36°51' E 174°47'1 1.4
2015-Aug-30 21:30S 36°50' E 174°45'1 1.5
2015-Aug-30 20:33S 36°51' E 174°47'1 1.2
2015-Aug-30 19:34S 36°50' E 174°45'4 3.7
2015-Aug-30 18:33S 36°48' E 174°49'7 6.9
2015-Aug-30 17:33S 36°41' E 174°52'1010.2
2015-Aug-30 16:33S 36°51' E 174°47'0 0.0
2015-Aug-30 15:33S 36°51' E 174°47'0 0.1
2015-Aug-30 14:34S 36°51' E 174°47'0 0.0
2015-Aug-30 13:31S 36°51' E 174°47'0 0.0
2015-Aug-30 12:33S 36°51' E 174°47'0 0.0
2015-Aug-30 11:33S 36°51' E 174°47'6 6.1
2015-Aug-30 10:33S 36°45' E 174°50'6 6.0
2015-Aug-30 09:33S 36°51' E 174°47'0 0.0
2015-Aug-30 08:33S 36°51' E 174°47'3 2.7
2015-Aug-30 07:33S 36°49' E 174°49'3 2.7
2015-Aug-30 06:33S 36°51' E 174°47'0 0.0
2015-Aug-30 05:33S 36°51' E 174°47'0 0.0
2015-Aug-30 04:33S 36°51' E 174°47'0 0.0
2015-Aug-30 03:31S 36°51' E 174°47'3 2.9
2015-Aug-30 02:34S 36°48' E 174°49'2 2.4
2015-Aug-30 01:33S 36°51' E 174°48'1 1.2
2015-Aug-30 00:33S 36°51' E 174°47'3 3.3
2015-Aug-29 23:34S 36°48' E 174°49'3 2.8
2015-Aug-29 22:24S 36°51' E 174°47'4 0.5
2015-Aug-29 13:33S 36°46' E 174°48'2 1.9
2015-Aug-29 12:34S 36°45' E 174°50'1 1.1
2015-Aug-29 11:33S 36°46' E 174°49'5 5.1
2015-Aug-29 10:33S 36°51' E 174°47'0 0.0
2015-Aug-29 03:12S 36°51' E 174°47'3 4.8
2015-Aug-29 02:33S 36°48' E 174°49'3 3.1
2015-Aug-29 01:33S 36°51' E 174°47'0 0.0
2015-Aug-29 00:33S 36°51' E 174°47'0 0.0
2015-Aug-28 23:30S 36°51' E 174°47'0 0.0
2015-Aug-28 22:28S 36°51' E 174°47'0 0.0
2015-Aug-28 21:32S 36°51' E 174°47'0 0.0
2015-Aug-28 20:30S 36°51' E 174°47'7 7.7
2015-Aug-28 19:34S 36°44' E 174°51'4 3.9
2015-Aug-28 18:33S 36°48' E 174°49'3 3.4
2015-Aug-28 17:33S 36°51' E 174°47'0 0.0
2015-Aug-28 02:22S 36°51' E 174°47'0 0.0
2015-Aug-28 00:28S 36°51' E 174°47'0 0.0
2015-Aug-27 23:25S 36°51' E 174°47'0 0.0
2015-Aug-27 22:33S 36°51' E 174°47'0 0.0
2015-Aug-27 20:31S 36°51' E 174°47'0 0.0
2015-Aug-27 19:20S 36°51' E 174°47'0 0.0
2015-Aug-27 06:05S 36°51' E 174°47'0 0.1
2015-Aug-27 05:33S 36°51' E 174°47'0 0.1
2015-Aug-27 04:33S 36°51' E 174°47'0 0.0
2015-Aug-27 03:33S 36°51' E 174°47'0 0.0
2015-Aug-27 02:33S 36°51' E 174°47'0 0.0
2015-Aug-27 01:33S 36°51' E 174°47'0 0.0
2015-Aug-27 00:33S 36°51' E 174°47'0 0.0
2015-Aug-26 23:33S 36°51' E 174°47'0 0.0
2015-Aug-26 22:33S 36°51' E 174°47'0 0.0
2015-Aug-26 21:33S 36°51' E 174°47'0 0.0
2015-Aug-26 20:30S 36°51' E 174°47'0 0.0
2015-Aug-26 19:32S 36°51' E 174°47'  
Track history (hours):
 
Tides and Currents Weather Stations Pressure Air Temp Water Temp Dewpoint Dewpoint Depression Visibility Wind Speed Wind Dir Waves Ship Positions

Pilot Vessel Akarana

Last reported at 2015-Sep-05 12:34 UTC. Time now 2015-Sep-05 14:18 UTC.
Position S 36°46' E 174°49'.

Length 15 m; draft 1.6 m.

Type: Pilot. MMSI: 512000344.

Date/timePositionNaut miles runAvg speedWind from/ knotsBaromVisibWave heightAir tempDewpointWater temp
2015-Sep-05 12:34S 36°46' E 174°49'0 0.4
2015-Sep-05 11:34S 36°46' E 174°50'1 1.4
2015-Sep-05 10:33S 36°47' E 174°49'0 0.4
2015-Sep-05 09:33S 36°47' E 174°49'4 3.7
2015-Sep-05 08:33S 36°51' E 174°47'5 1.0
2015-Sep-05 03:34S 36°46' E 174°49'5 1.4
2015-Sep-05 00:13S 36°51' E 174°47'3 4.7
2015-Sep-04 23:31S 36°48' E 174°50'3 1.0
2015-Sep-04 20:30S 36°50' E 174°47'0 0.2
2015-Sep-04 18:22S 36°51' E 174°47'3 2.6
2015-Sep-04 17:13S 36°48' E 174°48'2 1.0
2015-Sep-04 15:18S 36°46' E 174°49'5 2.4
2015-Sep-04 13:14S 36°51' E 174°47'0 0.0
2015-Sep-04 12:33S 36°51' E 174°47'0 0.0
2015-Sep-04 11:33S 36°51' E 174°47'0 0.0
2015-Sep-04 09:32S 36°51' E 174°47'0 0.0
2015-Sep-04 08:17S 36°51' E 174°47'6 8.3
2015-Sep-04 07:33S 36°45' E 174°50'6 1.9
2015-Sep-04 04:26S 36°51' E 174°47'0 0.0
2015-Sep-04 03:33S 36°51' E 174°47'0 0.0
2015-Sep-04 02:32S 36°51' E 174°47'7 7.0
2015-Sep-04 01:34S 36°44' E 174°50'7 6.8
2015-Sep-04 00:33S 36°51' E 174°47'1 0.6
2015-Sep-03 23:29S 36°50' E 174°47'4 4.6
2015-Sep-03 22:34S 36°46' E 174°49'1 1.3
2015-Sep-03 21:34S 36°45' E 174°50'6 6.0
2015-Sep-03 20:33S 36°51' E 174°47'0 0.0
2015-Sep-03 19:33S 36°51' E 174°47'0 0.0
2015-Sep-03 18:33S 36°51' E 174°47'5 5.5
2015-Sep-03 17:33S 36°46' E 174°50'5 5.5
2015-Sep-03 16:33S 36°51' E 174°47'5 4.7
2015-Sep-03 15:34S 36°46' E 174°49'5 4.7
2015-Sep-03 14:33S 36°51' E 174°47'0 0.0
2015-Sep-03 13:34S 36°51' E 174°47'0 0.0
2015-Sep-03 12:33S 36°51' E 174°47'0 0.0
2015-Sep-03 11:33S 36°51' E 174°47'3 3.2
2015-Sep-03 10:33S 36°48' E 174°49'3 3.1
2015-Sep-03 09:33S 36°51' E 174°47'3 3.0
2015-Sep-03 08:33S 36°48' E 174°49'3 3.0
2015-Sep-03 07:33S 36°51' E 174°47'0 0.0
2015-Sep-03 02:28S 36°51' E 174°47'1 1.3
2015-Sep-03 01:33S 36°51' E 174°48'1 1.3
2015-Sep-03 00:32S 36°50' E 174°47'0 0.1
2015-Sep-02 20:18S 36°51' E 174°47'0 0.0
2015-Sep-02 19:34S 36°51' E 174°47'0 0.0
2015-Sep-02 18:33S 36°51' E 174°47'0 0.0
2015-Sep-02 17:29S 36°51' E 174°47'0 0.0
2015-Sep-02 16:32S 36°51' E 174°47'3 3.5
2015-Sep-02 15:34S 36°48' E 174°49'3 3.4
2015-Sep-02 14:33S 36°51' E 174°47'0 0.0
2015-Sep-02 13:33S 36°51' E 174°47'0 0.0
2015-Sep-02 12:33S 36°51' E 174°47'0 0.0
2015-Sep-02 11:34S 36°51' E 174°47'0 0.0
2015-Sep-02 10:32S 36°51' E 174°47'0 0.0
2015-Sep-02 09:33S 36°51' E 174°47'0 0.0
2015-Sep-02 08:33S 36°51' E 174°47'0 0.0
2015-Sep-02 07:33S 36°51' E 174°47'0 0.0
2015-Sep-02 06:33S 36°51' E 174°47'0 0.0
2015-Sep-02 05:33S 36°51' E 174°47'0 0.0
2015-Sep-02 04:18S 36°51' E 174°47'0 0.4
2015-Sep-02 03:22S 36°50' E 174°47'0 0.4
2015-Sep-02 02:33S 36°51' E 174°47'5 5.4
2015-Sep-02 01:34S 36°46' E 174°50'5 5.2
2015-Sep-02 00:31S 36°51' E 174°47'0 0.0
2015-Sep-01 23:33S 36°51' E 174°47'0 0.0
2015-Sep-01 22:33S 36°51' E 174°47'0 0.0
2015-Sep-01 21:33S 36°51' E 174°47'0 0.0
2015-Sep-01 20:33S 36°51' E 174°47'0 0.0
2015-Sep-01 19:34S 36°51' E 174°47'0 0.0
2015-Sep-01 18:34S 36°51' E 174°47'2 1.9
2015-Sep-01 17:34S 36°50' E 174°49'2 1.8
2015-Sep-01 16:33S 36°50' E 174°47'0 0.1
2015-Sep-01 14:18S 36°51' E 174°47'0 0.0
2015-Sep-01 13:20S 36°51' E 174°47'0 0.0
2015-Sep-01 12:33S 36°51' E 174°47'0 0.0
2015-Sep-01 11:33S 36°51' E 174°47'0 0.2
2015-Sep-01 10:34S 36°50' E 174°47'0 0.0
2015-Sep-01 04:13S 36°51' E 174°47'0 0.5
2015-Sep-01 03:32S 36°50' E 174°47'0 0.4
2015-Sep-01 02:33S 36°51' E 174°47'0 0.0
2015-Sep-01 01:33S 36°51' E 174°47'0 0.0
2015-Sep-01 00:33S 36°51' E 174°47'0 0.0
2015-Aug-31 23:33S 36°51' E 174°47'0 0.0
2015-Aug-31 22:33S 36°51' E 174°47'0 0.0
2015-Aug-31 21:33S 36°51' E 174°47'0 0.0
2015-Aug-31 20:20S 36°51' E 174°47'0 0.0
2015-Aug-31 19:33S 36°51' E 174°47'0 0.0
2015-Aug-31 18:34S 36°51' E 174°47'0 0.0
2015-Aug-31 17:29S 36°51' E 174°47'0 0.0
2015-Aug-31 16:32S 36°51' E 174°47'0 0.1
2015-Aug-31 15:34S 36°51' E 174°47'3 0.8
2015-Aug-31 11:34S 36°48' E 174°49'2 1.6
2015-Aug-31 10:33S 36°50' E 174°49'2 1.9
2015-Aug-31 09:34S 36°51' E 174°47'0 0.0
2015-Aug-31 08:33S 36°51' E 174°47'2 1.9
2015-Aug-31 07:33S 36°50' E 174°49'3 3.3
2015-Aug-31 06:34S 36°46' E 174°49'4 4.5
2015-Aug-31 05:33S 36°51' E 174°47'0 0.0
2015-Aug-31 04:33S 36°51' E 174°47'0 0.0
2015-Aug-31 03:32S 36°51' E 174°47'0 0.0
2015-Aug-31 02:33S 36°51' E 174°47'0 0.0
2015-Aug-31 01:33S 36°51' E 174°47'0 0.0
2015-Aug-31 00:33S 36°51' E 174°47'0 0.0
2015-Aug-30 23:30S 36°51' E 174°47'0 0.0
2015-Aug-30 22:33S 36°51' E 174°47'1 1.4
2015-Aug-30 21:30S 36°50' E 174°45'1 1.5
2015-Aug-30 20:33S 36°51' E 174°47'1 1.2
2015-Aug-30 19:34S 36°50' E 174°45'4 3.7
2015-Aug-30 18:33S 36°48' E 174°49'7 6.9
2015-Aug-30 17:33S 36°41' E 174°52'1010.2
2015-Aug-30 16:33S 36°51' E 174°47'0 0.0
2015-Aug-30 15:33S 36°51' E 174°47'0 0.1
2015-Aug-30 14:34S 36°51' E 174°47'0 0.0
2015-Aug-30 13:31S 36°51' E 174°47'0 0.0
2015-Aug-30 12:33S 36°51' E 174°47'0 0.0
2015-Aug-30 11:33S 36°51' E 174°47'6 6.1
2015-Aug-30 10:33S 36°45' E 174°50'6 6.0
2015-Aug-30 09:33S 36°51' E 174°47'0 0.0
2015-Aug-30 08:33S 36°51' E 174°47'3 2.7
2015-Aug-30 07:33S 36°49' E 174°49'3 2.7
2015-Aug-30 06:33S 36°51' E 174°47'0 0.0
2015-Aug-30 05:33S 36°51' E 174°47'0 0.0
2015-Aug-30 04:33S 36°51' E 174°47'0 0.0
2015-Aug-30 03:31S 36°51' E 174°47'3 2.9
2015-Aug-30 02:34S 36°48' E 174°49'2 2.4
2015-Aug-30 01:33S 36°51' E 174°48'1 1.2
2015-Aug-30 00:33S 36°51' E 174°47'3 3.3
2015-Aug-29 23:34S 36°48' E 174°49'3 2.8
2015-Aug-29 22:24S 36°51' E 174°47'4 0.5
2015-Aug-29 13:33S 36°46' E 174°48'2 1.9
2015-Aug-29 12:34S 36°45' E 174°50'1 1.1
2015-Aug-29 11:33S 36°46' E 174°49'5 5.1
2015-Aug-29 10:33S 36°51' E 174°47'0 0.0
2015-Aug-29 03:12S 36°51' E 174°47'3 4.8
2015-Aug-29 02:33S 36°48' E 174°49'3 3.1
2015-Aug-29 01:33S 36°51' E 174°47'0 0.0
2015-Aug-29 00:33S 36°51' E 174°47'0 0.0
2015-Aug-28 23:30S 36°51' E 174°47'0 0.0
2015-Aug-28 22:28S 36°51' E 174°47'0 0.0
2015-Aug-28 21:32S 36°51' E 174°47'0 0.0
2015-Aug-28 20:30S 36°51' E 174°47'7 7.7
2015-Aug-28 19:34S 36°44' E 174°51'4 3.9
2015-Aug-28 18:33S 36°48' E 174°49'3 3.4
2015-Aug-28 17:33S 36°51' E 174°47'0 0.0
2015-Aug-28 02:22S 36°51' E 174°47'0 0.0
2015-Aug-28 00:28S 36°51' E 174°47'0 0.0
2015-Aug-27 23:25S 36°51' E 174°47'0 0.0
2015-Aug-27 22:33S 36°51' E 174°47'0 0.0
2015-Aug-27 20:31S 36°51' E 174°47'0 0.0
2015-Aug-27 19:20S 36°51' E 174°47'0 0.0
2015-Aug-27 06:05S 36°51' E 174°47'0 0.1
2015-Aug-27 05:33S 36°51' E 174°47'0 0.1
2015-Aug-27 04:33S 36°51' E 174°47'0 0.0
2015-Aug-27 03:33S 36°51' E 174°47'0 0.0
2015-Aug-27 02:33S 36°51' E 174°47'0 0.0
2015-Aug-27 01:33S 36°51' E 174°47'0 0.0
2015-Aug-27 00:33S 36°51' E 174°47'0 0.0
2015-Aug-26 23:33S 36°51' E 174°47'0 0.0
2015-Aug-26 22:33S 36°51' E 174°47'0 0.0
2015-Aug-26 21:33S 36°51' E 174°47'0 0.0
2015-Aug-26 20:30S 36°51' E 174°47'0 0.0
2015-Aug-26 19:32S 36°51' E 174°47'  

Dump ship's entire track history